createdAt,value
2022-07-29T00:01:44.755Z,1.98
2022-07-29T00:04:11.549Z,1.30
2022-07-29T00:06:38.035Z,1.48
2022-07-29T00:09:04.458Z,1.80
2022-07-29T00:11:30.814Z,1.30
2022-07-29T00:13:57.195Z,1.73
2022-07-29T00:16:24.023Z,1.63
2022-07-29T00:18:50.411Z,1.60
2022-07-29T00:21:16.823Z,1.77
2022-07-29T00:23:43.185Z,1.75
2022-07-29T00:26:09.564Z,1.80
2022-07-29T00:28:35.994Z,1.63
2022-07-29T00:31:02.456Z,1.35
2022-07-29T00:33:29.669Z,1.77
2022-07-29T00:35:56.037Z,1.85
2022-07-29T00:38:23.651Z,2.13
2022-07-29T00:40:50.179Z,2.17
2022-07-29T00:43:18.039Z,1.92
2022-07-29T00:45:44.912Z,2.00
2022-07-29T00:48:11.471Z,2.08
2022-07-29T00:50:38.509Z,2.22
2022-07-29T00:53:06.759Z,2.13
2022-07-29T00:55:33.169Z,2.42
2022-07-29T00:57:59.792Z,2.25
2022-07-29T01:00:27.800Z,2.55
2022-07-29T01:02:54.309Z,2.08
2022-07-29T01:05:22.687Z,2.10
2022-07-29T01:07:50.671Z,2.00
2022-07-29T01:10:17.603Z,2.40
2022-07-29T01:12:46.078Z,2.47
2022-07-29T01:15:12.856Z,2.50
2022-07-29T01:17:53.229Z,2.50
2022-07-29T01:20:38.563Z,2.25
2022-07-29T01:25:56.291Z,2.25
2022-07-29T01:28:50.627Z,2.30
2022-07-29T01:31:25.015Z,2.57
2022-07-29T01:36:37.363Z,2.40
2022-07-29T01:39:06.389Z,2.15
2022-07-29T01:41:33.619Z,2.95
2022-07-29T01:44:32.334Z,2.47
2022-07-29T01:47:00.669Z,2.50
2022-07-29T01:49:29.554Z,2.10
2022-07-29T01:52:00.571Z,2.30
2022-07-29T01:54:39.951Z,2.25
2022-07-29T01:57:08.188Z,2.40
2022-07-29T01:59:36.406Z,2.42
2022-07-29T02:02:03.351Z,2.78
2022-07-29T02:04:30.563Z,2.47
2022-07-29T02:07:01.398Z,2.50
2022-07-29T02:09:28.254Z,2.17
2022-07-29T02:11:55.159Z,1.92
2022-07-29T02:14:23.564Z,2.35
2022-07-29T02:16:56.965Z,2.28
2022-07-29T02:19:24.471Z,2.67
2022-07-29T02:21:52.585Z,2.40
2022-07-29T02:24:19.603Z,2.38
2022-07-29T02:26:46.695Z,2.20
2022-07-29T02:29:13.492Z,2.15
2022-07-29T02:31:40.423Z,2.40
2022-07-29T02:34:08.206Z,2.22
2022-07-29T02:36:35.335Z,2.25
2022-07-29T02:39:03.205Z,2.03
2022-07-29T02:41:48.775Z,2.45
2022-07-29T02:44:17.854Z,2.50
2022-07-29T02:46:49.039Z,2.83
2022-07-29T02:49:34.938Z,2.40
2022-07-29T02:52:07.987Z,2.90
2022-07-29T02:54:45.399Z,2.72
2022-07-29T02:57:34.238Z,2.55
2022-07-29T03:00:05.482Z,2.50
2022-07-29T03:02:35.437Z,2.60
2022-07-29T03:05:03.774Z,2.30
2022-07-29T03:07:30.881Z,2.67
2022-07-29T03:09:57.755Z,2.65
2022-07-29T03:12:24.744Z,2.25
2022-07-29T03:14:51.331Z,3.00
2022-07-29T03:17:17.965Z,2.47
2022-07-29T03:19:44.410Z,2.90
2022-07-29T03:22:10.775Z,2.85
2022-07-29T03:24:37.844Z,2.88
2022-07-29T03:27:05.658Z,2.67
2022-07-29T03:29:33.643Z,2.70
2022-07-29T03:32:00.673Z,3.10
2022-07-29T03:34:29.063Z,2.45
2022-07-29T03:36:55.497Z,2.65
2022-07-29T03:39:24.246Z,2.80
2022-07-29T03:41:54.352Z,2.75
2022-07-29T03:44:21.935Z,2.80
2022-07-29T03:46:50.049Z,2.95
2022-07-29T03:49:17.792Z,2.83
2022-07-29T03:51:44.399Z,2.85
2022-07-29T03:54:10.779Z,2.97
2022-07-29T03:56:40.797Z,2.90
2022-07-29T03:59:07.993Z,3.08
2022-07-29T04:01:34.952Z,3.35
2022-07-29T04:04:02.846Z,3.42
2022-07-29T04:06:29.284Z,2.90
2022-07-29T04:08:55.653Z,2.42
2022-07-29T04:11:22.130Z,3.22
2022-07-29T04:13:48.500Z,3.40
2022-07-29T04:16:14.911Z,3.58
2022-07-29T04:18:41.358Z,2.83
2022-07-29T04:21:07.728Z,3.50
2022-07-29T04:23:34.388Z,3.55
2022-07-29T04:26:01.960Z,3.30
2022-07-29T04:28:28.334Z,3.25
2022-07-29T04:30:54.743Z,3.70
2022-07-29T04:33:21.163Z,3.30
2022-07-29T04:35:52.697Z,3.22
2022-07-29T04:38:22.830Z,3.55
2022-07-29T04:40:49.770Z,3.28
2022-07-29T04:43:16.559Z,3.65
2022-07-29T04:45:46.935Z,3.50
2022-07-29T04:48:13.305Z,3.47
2022-07-29T04:50:40.596Z,3.08
2022-07-29T04:53:07.738Z,2.97
2022-07-29T04:55:34.553Z,3.95
2022-07-29T04:58:05.204Z,2.75
2022-07-29T05:00:33.441Z,3.17
2022-07-29T05:03:00.320Z,3.40
2022-07-29T05:05:26.817Z,3.00
2022-07-29T05:07:53.678Z,3.20
2022-07-29T05:10:20.038Z,3.03
2022-07-29T05:12:46.403Z,2.97
2022-07-29T05:15:12.779Z,3.30
2022-07-29T05:17:39.160Z,2.72
2022-07-29T05:20:06.987Z,2.75
2022-07-29T05:22:33.412Z,3.10
2022-07-29T05:24:59.798Z,3.40
2022-07-29T05:27:26.230Z,2.78
2022-07-29T05:29:52.622Z,2.55
2022-07-29T05:32:19.010Z,2.35
2022-07-29T05:34:50.060Z,2.85
2022-07-29T05:37:16.953Z,2.72
2022-07-29T05:39:48.263Z,2.88
2022-07-29T05:42:15.617Z,3.40
2022-07-29T05:44:42.100Z,2.38
2022-07-29T05:47:08.714Z,2.67
2022-07-29T05:49:35.131Z,3.10
2022-07-29T05:52:01.567Z,2.95
2022-07-29T05:54:27.916Z,3.20
2022-07-29T05:56:54.457Z,3.05
2022-07-29T05:59:20.837Z,2.78
2022-07-29T06:01:47.339Z,2.92
2022-07-29T06:04:14.404Z,3.10
2022-07-29T06:06:41.015Z,3.00
2022-07-29T06:09:12.212Z,2.95
2022-07-29T06:11:39.026Z,2.63
2022-07-29T06:14:05.412Z,2.53
2022-07-29T06:16:32.136Z,2.38
2022-07-29T06:18:58.616Z,2.85
2022-07-29T06:21:24.987Z,2.42
2022-07-29T06:23:51.412Z,2.63
2022-07-29T06:26:17.795Z,2.72
2022-07-29T06:28:44.251Z,2.65
2022-07-29T06:31:10.707Z,2.95
2022-07-29T06:33:37.163Z,2.60
2022-07-29T06:36:06.207Z,2.30
2022-07-29T06:38:34.489Z,2.58
2022-07-29T06:41:13.023Z,2.20
2022-07-29T06:43:50.417Z,2.40
2022-07-29T06:46:20.341Z,2.50
2022-07-29T06:48:49.115Z,2.38
2022-07-29T06:51:15.806Z,3.08
2022-07-29T06:54:00.194Z,2.85
2022-07-29T06:56:30.168Z,2.70
2022-07-29T06:58:56.578Z,2.65
2022-07-29T07:01:23.012Z,2.60
2022-07-29T07:03:49.468Z,2.38
2022-07-29T07:06:15.920Z,2.65
2022-07-29T07:08:42.367Z,2.38
2022-07-29T07:11:09.417Z,3.05
2022-07-29T07:13:36.842Z,1.92
2022-07-29T07:16:04.068Z,2.38
2022-07-29T07:18:30.903Z,2.55
2022-07-29T07:20:57.860Z,2.67
2022-07-29T07:23:24.292Z,2.45
2022-07-29T07:25:50.875Z,2.42
2022-07-29T07:28:17.304Z,2.53
2022-07-29T07:30:43.703Z,2.40
2022-07-29T07:33:10.176Z,2.63
2022-07-29T07:35:36.584Z,2.30
2022-07-29T07:38:03.347Z,2.60
2022-07-29T07:40:29.757Z,2.85
2022-07-29T07:42:56.157Z,2.58
2022-07-29T07:45:22.796Z,3.17
2022-07-29T07:47:49.176Z,2.10
2022-07-29T07:50:19.321Z,2.50
2022-07-29T07:52:51.023Z,2.30
2022-07-29T07:55:17.858Z,3.08
2022-07-29T07:57:45.083Z,2.58
2022-07-29T08:00:13.253Z,2.90
2022-07-29T08:02:40.426Z,2.30
2022-07-29T08:05:12.667Z,2.15
2022-07-29T08:07:39.330Z,2.20
2022-07-29T08:10:06.183Z,2.05
2022-07-29T08:12:32.589Z,2.40
2022-07-29T08:14:59.112Z,2.45
2022-07-29T08:17:25.560Z,3.10
2022-07-29T08:19:52.004Z,2.78
2022-07-29T08:22:18.470Z,2.30
2022-07-29T08:24:45.075Z,2.65
2022-07-29T08:27:40.891Z,2.30
2022-07-29T08:29:59.517Z,2.53
2022-07-29T08:32:50.819Z,2.97
2022-07-29T08:35:12.596Z,2.72
2022-07-29T08:37:38.982Z,2.47
2022-07-29T08:40:07.489Z,2.42
2022-07-29T08:42:33.894Z,2.50
2022-07-29T08:45:00.393Z,2.47
2022-07-29T08:47:28.398Z,2.47
2022-07-29T08:49:54.984Z,2.60
2022-07-29T08:52:22.729Z,2.60
2022-07-29T08:54:49.526Z,2.40
2022-07-29T08:57:17.012Z,2.70
2022-07-29T08:59:45.029Z,2.45
2022-07-29T09:02:24.132Z,3.00
2022-07-29T09:04:50.771Z,2.60
2022-07-29T09:07:18.486Z,2.70
2022-07-29T09:09:45.055Z,2.58
2022-07-29T09:12:28.846Z,2.65
2022-07-29T09:14:56.396Z,2.70
2022-07-29T09:17:51.971Z,2.42
2022-07-29T09:20:25.409Z,2.30
2022-07-29T09:22:56.171Z,2.77
2022-07-29T09:25:39.094Z,2.92
2022-07-29T09:28:12.363Z,2.47
2022-07-29T09:30:54.815Z,2.58
2022-07-29T09:33:22.391Z,3.15
2022-07-29T09:36:09.618Z,2.50
2022-07-29T09:38:37.543Z,2.88
2022-07-29T09:41:06.136Z,2.90
2022-07-29T09:43:33.115Z,2.45
2022-07-29T09:46:13.848Z,2.33
2022-07-29T09:48:40.625Z,2.72
2022-07-29T09:51:20.624Z,2.60
2022-07-29T09:53:48.667Z,2.63
2022-07-29T09:56:15.155Z,2.58
2022-07-29T09:58:41.697Z,2.65
2022-07-29T10:01:08.180Z,2.28
2022-07-29T10:03:51.485Z,2.70
2022-07-29T10:06:17.910Z,2.97
2022-07-29T10:08:44.611Z,3.15
2022-07-29T10:11:18.088Z,2.75
2022-07-29T10:13:46.150Z,3.17
2022-07-29T10:16:14.130Z,2.83
2022-07-29T10:18:42.801Z,2.90
2022-07-29T10:21:10.432Z,3.20
2022-07-29T10:23:46.996Z,2.70
2022-07-29T10:26:13.911Z,3.08
2022-07-29T10:28:40.470Z,3.47
2022-07-29T10:31:09.353Z,2.50
2022-07-29T10:34:02.667Z,2.80
2022-07-29T10:36:50.443Z,2.90
2022-07-29T10:39:49.707Z,2.97
2022-07-29T10:42:33.449Z,3.15
2022-07-29T10:45:01.829Z,2.65
2022-07-29T10:47:28.307Z,2.53
2022-07-29T10:50:03.613Z,2.80
2022-07-29T10:52:59.420Z,2.67
2022-07-29T10:55:34.067Z,2.70
2022-07-29T10:58:22.271Z,2.67
2022-07-29T11:00:50.332Z,3.08
2022-07-29T11:03:50.844Z,2.80
2022-07-29T11:06:26.980Z,2.72
2022-07-29T11:09:25.786Z,2.70
2022-07-29T11:12:02.541Z,2.90
2022-07-29T11:15:02.390Z,2.67
2022-07-29T11:17:37.502Z,2.90
2022-07-29T11:20:38.269Z,3.25
2022-07-29T11:23:33.425Z,2.75
2022-07-29T11:26:23.366Z,2.92
2022-07-29T11:28:56.203Z,2.83
2022-07-29T11:31:37.745Z,3.33
2022-07-29T11:34:22.680Z,2.47
2022-07-29T11:37:07.506Z,2.77
2022-07-29T11:39:36.450Z,2.80
2022-07-29T11:42:32.094Z,2.45
2022-07-29T11:48:05.274Z,2.53
2022-07-29T11:50:45.653Z,2.67
2022-07-29T11:53:13.704Z,2.72
2022-07-29T11:55:51.007Z,2.33
2022-07-29T11:58:25.037Z,2.45
2022-07-29T12:00:52.641Z,2.53
2022-07-29T12:03:32.762Z,2.50
2022-07-29T12:06:00.115Z,2.50
2022-07-29T12:08:28.507Z,2.30
2022-07-29T12:10:54.885Z,2.40
2022-07-29T12:13:22.359Z,2.30
2022-07-29T12:15:56.312Z,2.20
2022-07-29T12:18:28.897Z,2.53
2022-07-29T12:21:03.551Z,2.75
2022-07-29T12:23:34.815Z,2.58
2022-07-29T12:26:04.826Z,2.80
2022-07-29T12:28:38.149Z,2.47
2022-07-29T12:31:04.694Z,2.65
2022-07-29T12:33:32.254Z,4.43
2022-07-29T12:36:12.894Z,2.75
2022-07-29T12:38:44.174Z,3.10
2022-07-29T12:41:11.191Z,2.70
2022-07-29T12:43:37.623Z,2.53
2022-07-29T12:46:14.842Z,2.42
2022-07-29T12:48:42.794Z,2.80
2022-07-29T12:51:10.887Z,2.60
2022-07-29T12:53:37.703Z,2.20
2022-07-29T12:56:15.572Z,2.38
2022-07-29T12:58:52.622Z,2.70
2022-07-29T13:01:20.861Z,2.67
2022-07-29T13:03:57.672Z,2.80
2022-07-29T13:06:41.692Z,2.40
2022-07-29T13:09:16.100Z,2.55
2022-07-29T13:11:50.978Z,2.38
2022-07-29T13:14:40.318Z,2.80
2022-07-29T13:17:11.563Z,2.78
2022-07-29T13:19:50.467Z,3.83
2022-07-29T13:22:22.101Z,2.50
2022-07-29T13:24:52.490Z,3.03
2022-07-29T13:27:20.369Z,2.67
2022-07-29T13:29:47.497Z,2.58
2022-07-29T13:32:14.237Z,2.90
2022-07-29T13:34:41.557Z,2.78
2022-07-29T13:37:07.957Z,2.70
2022-07-29T13:39:34.511Z,3.03
2022-07-29T13:42:01.422Z,3.10
2022-07-29T13:44:28.046Z,2.65
2022-07-29T13:46:54.474Z,3.53
2022-07-29T13:49:21.242Z,2.58
2022-07-29T13:51:48.478Z,2.90
2022-07-29T13:54:14.826Z,2.88
2022-07-29T13:56:41.187Z,2.80
2022-07-29T13:59:08.542Z,3.10
2022-07-29T14:01:37.995Z,2.47
2022-07-29T14:04:04.434Z,3.00
2022-07-29T14:06:30.989Z,2.47
2022-07-29T14:08:57.375Z,2.58
2022-07-29T14:11:23.792Z,2.88
2022-07-29T14:13:50.153Z,2.75
2022-07-29T14:16:16.609Z,2.45
2022-07-29T14:18:43.469Z,2.60
2022-07-29T14:21:10.172Z,2.97
2022-07-29T14:23:37.645Z,2.42
2022-07-29T14:26:08.959Z,2.53
2022-07-29T14:28:41.912Z,2.95
2022-07-29T14:31:08.523Z,2.80
2022-07-29T14:33:34.899Z,3.05
2022-07-29T14:36:01.449Z,2.67
2022-07-29T14:38:27.834Z,2.13
2022-07-29T14:40:54.206Z,1.65
2022-07-29T14:43:20.571Z,2.10
2022-07-29T14:45:48.203Z,2.25
2022-07-29T14:48:14.655Z,1.83
2022-07-29T14:50:41.243Z,1.60
2022-07-29T14:53:07.604Z,1.50
2022-07-29T14:55:33.999Z,1.50
2022-07-29T14:58:08.759Z,1.50
2022-07-29T15:00:38.495Z,1.85
2022-07-29T15:03:05.817Z,1.30
2022-07-29T15:05:32.865Z,1.52
2022-07-29T15:07:59.920Z,1.48
2022-07-29T15:10:28.043Z,1.58
2022-07-29T15:12:55.170Z,1.40
2022-07-29T15:15:21.698Z,1.52
2022-07-29T15:17:48.342Z,1.30
2022-07-29T15:20:14.847Z,2.20
2022-07-29T15:22:43.087Z,1.83
2022-07-29T15:25:10.410Z,1.63
2022-07-29T15:27:37.142Z,1.55
2022-07-29T15:30:04.210Z,1.75
2022-07-29T15:32:30.582Z,1.50
2022-07-29T15:34:56.969Z,1.90
2022-07-29T15:37:23.380Z,1.63
2022-07-29T15:39:56.022Z,1.75
2022-07-29T15:42:26.130Z,2.05
2022-07-29T15:44:52.499Z,1.40
2022-07-29T15:47:18.869Z,1.52
2022-07-29T15:49:46.399Z,1.60
2022-07-29T15:52:17.867Z,1.92
2022-07-29T15:54:44.263Z,2.20
2022-07-29T15:57:10.691Z,1.30
2022-07-29T15:59:37.188Z,1.38
2022-07-29T16:02:03.802Z,1.95
2022-07-29T16:04:30.506Z,1.42
2022-07-29T16:06:57.380Z,1.70
2022-07-29T16:09:23.907Z,1.25
2022-07-29T16:11:53.431Z,1.50
2022-07-29T16:14:20.473Z,1.60
2022-07-29T16:16:46.907Z,1.45
2022-07-29T16:19:13.289Z,1.55
2022-07-29T16:21:39.799Z,1.77
2022-07-29T16:24:07.037Z,2.08
2022-07-29T16:26:34.346Z,1.85
2022-07-29T16:29:00.759Z,2.05
2022-07-29T16:31:27.567Z,1.70
2022-07-29T16:33:55.969Z,1.98
2022-07-29T16:36:23.021Z,2.55
2022-07-29T16:38:49.580Z,1.90
2022-07-29T16:41:15.968Z,1.65
2022-07-29T16:43:42.547Z,1.98
2022-07-29T16:46:09.407Z,1.80
2022-07-29T16:48:44.152Z,1.60
2022-07-29T16:51:11.748Z,1.60
2022-07-29T16:53:41.035Z,2.00
2022-07-29T16:56:07.432Z,1.40
2022-07-29T16:58:40.504Z,1.80
2022-07-29T17:01:09.881Z,1.83
2022-07-29T17:03:36.326Z,1.80
2022-07-29T17:06:02.711Z,1.92
2022-07-29T17:08:29.135Z,1.80
2022-07-29T17:10:55.912Z,2.00
2022-07-29T17:13:22.266Z,2.22
2022-07-29T17:15:48.658Z,2.13
2022-07-29T17:18:15.171Z,2.75
2022-07-29T17:20:41.989Z,2.70
2022-07-29T17:23:08.391Z,2.60
2022-07-29T17:25:34.773Z,2.45
2022-07-29T17:28:01.468Z,2.22
2022-07-29T17:30:28.595Z,2.65
2022-07-29T17:32:55.039Z,2.80
2022-07-29T17:35:39.730Z,3.47
2022-07-29T17:38:06.121Z,3.53
2022-07-29T17:40:32.506Z,4.15
2022-07-29T17:42:58.927Z,3.70
2022-07-29T17:45:25.408Z,3.92
2022-07-29T17:47:51.795Z,4.07
2022-07-29T17:50:18.183Z,3.70
2022-07-29T17:52:44.596Z,4.13
2022-07-29T17:55:13.140Z,4.30
2022-07-29T17:57:39.618Z,4.22
2022-07-29T18:00:08.443Z,4.72
2022-07-29T18:02:37.547Z,3.53
2022-07-29T18:05:05.033Z,3.60
2022-07-29T18:07:31.599Z,3.55
2022-07-29T18:10:00.580Z,3.55
2022-07-29T18:12:28.010Z,3.53
2022-07-29T18:14:54.370Z,4.13
2022-07-29T18:17:20.817Z,5.00
2022-07-29T18:19:48.141Z,3.88
2022-07-29T18:22:15.149Z,4.15
2022-07-29T18:24:41.988Z,3.97
2022-07-29T18:27:08.355Z,4.13
2022-07-29T18:29:34.777Z,5.00
2022-07-29T18:32:01.518Z,4.85
2022-07-29T18:34:28.782Z,4.70
2022-07-29T18:36:55.429Z,4.93
2022-07-29T18:39:22.132Z,5.32
2022-07-29T18:41:51.036Z,4.68
2022-07-29T18:44:18.979Z,4.15
2022-07-29T18:46:47.476Z,4.97
2022-07-29T18:49:14.575Z,5.03
2022-07-29T18:51:41.055Z,4.68
2022-07-29T18:54:09.055Z,4.28
2022-07-29T18:56:35.431Z,4.68
2022-07-29T18:59:02.885Z,4.68
2022-07-29T19:01:31.690Z,4.65
2022-07-29T19:03:58.666Z,4.60
2022-07-29T19:06:25.958Z,5.15
2022-07-29T19:08:52.792Z,4.85
2022-07-29T19:11:19.191Z,4.75
2022-07-29T19:13:45.698Z,3.70
2022-07-29T19:16:13.858Z,4.28
2022-07-29T19:18:40.812Z,4.55
2022-07-29T19:21:07.208Z,4.20
2022-07-29T19:24:01.907Z,4.13
2022-07-29T19:26:20.887Z,4.32
2022-07-29T19:28:48.828Z,4.75
2022-07-29T19:31:15.747Z,4.30
2022-07-29T19:33:42.523Z,4.32
2022-07-29T19:36:08.919Z,4.13
2022-07-29T19:38:35.279Z,4.47
2022-07-29T19:41:01.667Z,4.45
2022-07-29T19:43:50.378Z,4.43
2022-07-29T19:46:14.536Z,4.80
2022-07-29T19:48:42.122Z,4.72
2022-07-29T19:51:08.534Z,4.72
2022-07-29T19:53:34.889Z,4.88
2022-07-29T19:56:01.286Z,4.93
2022-07-29T19:58:27.832Z,4.68
2022-07-29T20:00:54.644Z,4.25
2022-07-29T20:03:20.990Z,4.45
2022-07-29T20:05:51.001Z,5.00
2022-07-29T20:08:17.796Z,4.43
2022-07-29T20:10:44.250Z,5.07
2022-07-29T20:13:10.812Z,4.32
2022-07-29T20:15:37.241Z,4.78
2022-07-29T20:18:03.885Z,5.32
2022-07-29T20:20:30.343Z,4.90
2022-07-29T20:22:57.173Z,3.13
2022-07-29T20:25:23.909Z,3.97
2022-07-29T20:27:52.307Z,5.10
2022-07-29T20:30:19.492Z,4.57
2022-07-29T20:32:47.751Z,4.10
2022-07-29T20:35:14.533Z,4.40
2022-07-29T20:37:52.469Z,3.95
2022-07-29T20:40:23.626Z,4.70
2022-07-29T20:42:50.038Z,4.22
2022-07-29T20:45:16.420Z,4.43
2022-07-29T20:47:43.075Z,4.30
2022-07-29T20:50:10.014Z,4.55
2022-07-29T20:52:36.431Z,4.13
2022-07-29T20:55:03.025Z,4.88
2022-07-29T20:57:39.738Z,4.32
2022-07-29T21:00:07.749Z,3.97
2022-07-29T21:02:34.451Z,4.60
2022-07-29T21:05:01.050Z,5.13
2022-07-29T21:07:27.420Z,4.38
2022-07-29T21:09:53.791Z,4.45
2022-07-29T21:12:20.172Z,4.68
2022-07-29T21:14:47.627Z,4.50
2022-07-29T21:17:15.071Z,4.50
2022-07-29T21:19:42.502Z,4.32
2022-07-29T21:22:09.102Z,4.03
2022-07-29T21:24:35.777Z,4.20
2022-07-29T21:27:21.732Z,4.22
2022-07-29T21:29:48.655Z,4.18
2022-07-29T21:32:29.583Z,4.20
2022-07-29T21:34:56.631Z,4.30
2022-07-29T21:37:23.030Z,4.55
2022-07-29T21:39:49.426Z,4.07
2022-07-29T21:42:15.888Z,3.85
2022-07-29T21:44:42.349Z,4.00
2022-07-29T21:47:09.636Z,3.72
2022-07-29T21:49:36.378Z,3.83
2022-07-29T21:52:03.932Z,4.25
2022-07-29T21:54:30.417Z,4.70
2022-07-29T21:56:56.942Z,4.80
2022-07-29T21:59:24.484Z,4.57
2022-07-29T22:01:51.219Z,5.05
2022-07-29T22:04:17.671Z,4.95
2022-07-29T22:06:44.283Z,4.60
2022-07-29T22:09:10.638Z,5.10
2022-07-29T22:11:37.002Z,4.72
2022-07-29T22:14:04.830Z,4.38
2022-07-29T22:16:31.285Z,5.40
2022-07-29T22:18:57.719Z,5.50
2022-07-29T22:21:24.309Z,5.63
2022-07-29T22:23:50.670Z,5.60
2022-07-29T22:26:17.073Z,5.32
2022-07-29T22:28:43.456Z,5.32
2022-07-29T22:31:09.822Z,5.78
2022-07-29T22:33:36.227Z,5.07
2022-07-29T22:36:02.605Z,5.32
2022-07-29T22:38:28.966Z,5.03
2022-07-29T22:41:00.477Z,5.15
2022-07-29T22:43:26.993Z,5.03
2022-07-29T22:45:53.408Z,5.45
2022-07-29T22:48:19.822Z,5.20
2022-07-29T22:50:46.248Z,5.38
2022-07-29T22:53:12.602Z,4.85
2022-07-29T22:55:39.007Z,4.90
2022-07-29T22:58:05.360Z,5.13
2022-07-29T23:00:31.767Z,4.82
2022-07-29T23:02:58.157Z,5.00
2022-07-29T23:05:24.522Z,5.00
2022-07-29T23:07:51.066Z,4.93
2022-07-29T23:10:17.452Z,5.00
2022-07-29T23:12:43.850Z,5.72
2022-07-29T23:15:10.210Z,4.80
2022-07-29T23:17:36.970Z,6.30
2022-07-29T23:20:07.904Z,5.60
2022-07-29T23:22:35.403Z,5.07
2022-07-29T23:25:01.887Z,4.88
2022-07-29T23:27:28.276Z,5.20
2022-07-29T23:29:54.650Z,5.32
2022-07-29T23:32:21.040Z,5.40
2022-07-29T23:34:47.385Z,5.20
2022-07-29T23:37:13.761Z,4.60
2022-07-29T23:39:40.135Z,5.00
2022-07-29T23:42:06.541Z,4.70
2022-07-29T23:44:32.999Z,4.57
2022-07-29T23:46:59.649Z,5.07
2022-07-29T23:49:26.627Z,4.35
2022-07-29T23:51:53.238Z,4.75
2022-07-29T23:54:19.651Z,4.93
2022-07-29T23:56:46.530Z,4.30
2022-07-29T23:59:13.001Z,4.53
